Fort Worth Alliance Airport
KAFW : now visible

Airfield :











YOU CAN JOIN US ON...

 
LOGIN :

Register | Disclaimer

   EN    FR    IT 

 









Legend :    VFR   Marginal VFR   IFR   Intensive IFR   Very Intensive IFR
Visi :
Ceiling :
>= 8 km
>= 3000ft
5 to 8 km
1000 to 3000 ft
1500m to 5 km
500 to 1000 ft
800 to 1500m
200 to 500 ft
< 800m
< 200 ft
Symbols :   Thunderstorms  Fog  Heavy snow  Heavy precipitations  Wind > 20 kt







- Airport Elevation : 722 ft


KAFW - Fort Worth Alliance

CURRENT METAR :
  • 210653Z 16022G32KT 8SM BKN027 BKN034 OVC300 25/19 A2951 RMK AO2 PK WND 14034/0643 SLP976 CB DSNT NW MOV NE T02500194 $

EXPIRED METARs :
  • 210553Z 15022G30KT 8SM BKN029 OVC035 25/20 A2952 RMK AO2 PK WND 16034/0528 SLP982 CB DSNT NW MOV NE T02500200 10300 20250 403110222 58016 $
  • 210527Z 15024G32KT 8SM BKN029 OVC300 26/20 A2954 RMK AO2 PK WND 16034/0512 CB DSNT NW MOV NE T02560200 $
  • 210453Z 15021G37KT 8SM SCT028 BKN300 26/20 A2955 RMK AO2 PK WND 16037/0450 SLP992 CB DSNT NW MOV NE T02560200 $

TAF KAFW
Valid from the 21 at 06:00 until the 22 at 06:00 UTC


210520Z 2106/2206 16022G32KT P6SM BKN025
FM210900 18018KT 6SM -SHRA VCTS BKN025 OVC045CB
TEMPO 2110/2112 26020G35KT 3SM -TSRA BR BKN011CB
FM211300 21014G24KT P6SM VCSH BKN025
FM211600 23015KT P6SM SCT080 SCT300
FM220000 19008KT P6SM SKC
KZFW FIR / North America



MET'MAP, your aeronautical weather chart ! - Copyright ORBIFLY December 2007 - Disclaimer

ORBIFLY MET'MAP TEAM :

Programming & Development : Alexandra Zaïnal
Concept & Development : Baudouin d'Aumeries
Co-Development & Prog : Marc-Olivier Méhu
Technical & hardware support : Manuel Goepfert

Contact : metmap@orbifly.com




SOURCES & CREDITS :

   NOAA       Earth
Advisory